sensor_id;sensor_type;location;lat;lon;timestamp;pressure;altitude;pressure_sealevel;temperature;humidity
20930;BME280;21895;47.072;15.132;2023-06-05T00:00:00;96989.00;;;17.77;85.99
20930;BME280;21895;47.072;15.132;2023-06-05T00:02:27;96989.00;;;17.79;86.56
20930;BME280;21895;47.072;15.132;2023-06-05T00:04:54;96993.00;;;17.84;86.61
20930;BME280;21895;47.072;15.132;2023-06-05T00:07:21;96982.00;;;17.82;86.48
20930;BME280;21895;47.072;15.132;2023-06-05T00:09:47;96983.00;;;17.83;86.24
20930;BME280;21895;47.072;15.132;2023-06-05T00:12:14;96987.00;;;17.84;86.30
20930;BME280;21895;47.072;15.132;2023-06-05T00:14:43;96984.00;;;17.85;85.85
20930;BME280;21895;47.072;15.132;2023-06-05T00:17:10;96980.00;;;17.83;85.27
20930;BME280;21895;47.072;15.132;2023-06-05T00:19:36;96979.00;;;17.92;84.86
20930;BME280;21895;47.072;15.132;2023-06-05T00:22:03;96982.00;;;17.77;85.60
20930;BME280;21895;47.072;15.132;2023-06-05T00:24:30;96986.00;;;17.78;85.81
20930;BME280;21895;47.072;15.132;2023-06-05T00:26:57;96971.00;;;17.69;86.08
20930;BME280;21895;47.072;15.132;2023-06-05T00:29:24;96974.00;;;17.73;86.74
20930;BME280;21895;47.072;15.132;2023-06-05T00:31:50;96972.00;;;17.76;86.78
20930;BME280;21895;47.072;15.132;2023-06-05T00:34:17;96980.00;;;17.84;86.08
20930;BME280;21895;47.072;15.132;2023-06-05T00:36:44;96975.00;;;17.81;86.12
20930;BME280;21895;47.072;15.132;2023-06-05T00:39:10;96971.00;;;17.79;86.12
20930;BME280;21895;47.072;15.132;2023-06-05T00:41:37;96977.00;;;17.84;85.84
20930;BME280;21895;47.072;15.132;2023-06-05T00:44:08;96975.00;;;17.81;85.60
20930;BME280;21895;47.072;15.132;2023-06-05T00:46:35;96976.00;;;17.74;86.29
20930;BME280;21895;47.072;15.132;2023-06-05T00:49:01;96976.00;;;17.72;86.09
20930;BME280;21895;47.072;15.132;2023-06-05T00:51:28;96968.00;;;17.67;86.68
20930;BME280;21895;47.072;15.132;2023-06-05T00:53:55;96969.00;;;17.69;87.11
20930;BME280;21895;47.072;15.132;2023-06-05T00:56:22;96958.00;;;17.71;86.82
20930;BME280;21895;47.072;15.132;2023-06-05T00:58:49;96963.00;;;17.74;86.87
20930;BME280;21895;47.072;15.132;2023-06-05T01:01:15;96965.00;;;17.70;87.18
20930;BME280;21895;47.072;15.132;2023-06-05T01:03:43;96962.00;;;17.73;87.14
20930;BME280;21895;47.072;15.132;2023-06-05T01:06:11;96962.00;;;17.73;87.50
20930;BME280;21895;47.072;15.132;2023-06-05T01:08:38;96958.00;;;17.78;86.97
20930;BME280;21895;47.072;15.132;2023-06-05T01:11:46;96964.00;;;17.81;87.05
20930;BME280;21895;47.072;15.132;2023-06-05T01:14:23;96960.00;;;17.85;86.86
20930;BME280;21895;47.072;15.132;2023-06-05T01:16:52;96959.00;;;17.82;87.18
20930;BME280;21895;47.072;15.132;2023-06-05T01:19:23;96961.00;;;17.81;86.94
20930;BME280;21895;47.072;15.132;2023-06-05T01:21:55;96964.00;;;17.81;86.77
20930;BME280;21895;47.072;15.132;2023-06-05T01:24:22;96959.00;;;17.77;86.76
20930;BME280;21895;47.072;15.132;2023-06-05T01:27:16;96968.00;;;17.77;86.99
20930;BME280;21895;47.072;15.132;2023-06-05T01:30:12;96958.00;;;17.88;86.16
20930;BME280;21895;47.072;15.132;2023-06-05T01:32:56;96969.00;;;17.84;86.46
20930;BME280;21895;47.072;15.132;2023-06-05T01:35:24;96971.00;;;17.79;86.75
20930;BME280;21895;47.072;15.132;2023-06-05T01:37:55;96972.00;;;17.83;86.58
20930;BME280;21895;47.072;15.132;2023-06-05T01:40:25;96973.00;;;17.77;86.68
20930;BME280;21895;47.072;15.132;2023-06-05T01:42:55;96972.00;;;17.73;86.66
20930;BME280;21895;47.072;15.132;2023-06-05T01:45:23;96971.00;;;17.72;86.48
20930;BME280;21895;47.072;15.132;2023-06-05T01:47:51;96961.00;;;17.69;86.70
20930;BME280;21895;47.072;15.132;2023-06-05T01:50:18;96968.00;;;17.77;86.20
20930;BME280;21895;47.072;15.132;2023-06-05T01:52:46;96971.00;;;17.77;85.87
20930;BME280;21895;47.072;15.132;2023-06-05T01:55:19;96965.00;;;17.67;86.18
20930;BME280;21895;47.072;15.132;2023-06-05T01:57:50;96957.00;;;17.67;86.56
20930;BME280;21895;47.072;15.132;2023-06-05T02:00:17;96961.00;;;17.69;87.13
20930;BME280;21895;47.072;15.132;2023-06-05T02:02:45;96958.00;;;17.76;87.28
20930;BME280;21895;47.072;15.132;2023-06-05T02:05:14;96961.00;;;17.87;86.46
20930;BME280;21895;47.072;15.132;2023-06-05T02:07:46;96951.00;;;17.80;86.63
20930;BME280;21895;47.072;15.132;2023-06-05T02:10:20;96948.00;;;17.68;86.74
20930;BME280;21895;47.072;15.132;2023-06-05T02:12:47;96953.00;;;17.73;86.36
20930;BME280;21895;47.072;15.132;2023-06-05T02:15:13;96951.00;;;17.70;86.52
20930;BME280;21895;47.072;15.132;2023-06-05T02:17:42;96956.00;;;17.66;86.79
20930;BME280;21895;47.072;15.132;2023-06-05T02:20:12;96952.00;;;17.74;86.46
20930;BME280;21895;47.072;15.132;2023-06-05T02:22:39;96950.00;;;17.73;86.90
20930;BME280;21895;47.072;15.132;2023-06-05T02:25:09;96943.00;;;17.70;86.84
20930;BME280;21895;47.072;15.132;2023-06-05T02:27:39;96945.00;;;17.71;86.90
20930;BME280;21895;47.072;15.132;2023-06-05T02:30:07;96945.00;;;17.73;87.03
20930;BME280;21895;47.072;15.132;2023-06-05T02:32:34;96942.00;;;17.78;87.18
20930;BME280;21895;47.072;15.132;2023-06-05T02:35:02;96941.00;;;17.76;86.58
20930;BME280;21895;47.072;15.132;2023-06-05T02:37:31;96935.00;;;17.73;86.85
20930;BME280;21895;47.072;15.132;2023-06-05T02:40:07;96934.00;;;17.79;86.72
20930;BME280;21895;47.072;15.132;2023-06-05T02:42:35;96934.00;;;17.76;86.66
20930;BME280;21895;47.072;15.132;2023-06-05T02:45:02;96936.00;;;17.88;85.81
20930;BME280;21895;47.072;15.132;2023-06-05T02:47:30;96930.00;;;17.77;85.87
20930;BME280;21895;47.072;15.132;2023-06-05T02:49:57;96923.00;;;17.83;84.98
20930;BME280;21895;47.072;15.132;2023-06-05T02:52:24;96936.00;;;17.84;84.57
20930;BME280;21895;47.072;15.132;2023-06-05T02:54:51;96932.00;;;17.83;84.48
20930;BME280;21895;47.072;15.132;2023-06-05T02:57:18;96930.00;;;17.85;83.45
20930;BME280;21895;47.072;15.132;2023-06-05T02:59:45;96931.00;;;17.78;83.51
20930;BME280;21895;47.072;15.132;2023-06-05T03:02:11;96923.00;;;17.69;83.21
20930;BME280;21895;47.072;15.132;2023-06-05T03:04:38;96914.00;;;17.67;83.17
20930;BME280;21895;47.072;15.132;2023-06-05T03:07:09;96921.00;;;17.69;82.74
20930;BME280;21895;47.072;15.132;2023-06-05T03:09:36;96927.00;;;17.66;82.80
20930;BME280;21895;47.072;15.132;2023-06-05T03:12:03;96926.00;;;17.69;83.10
20930;BME280;21895;47.072;15.132;2023-06-05T03:14:30;96918.00;;;17.66;82.96
20930;BME280;21895;47.072;15.132;2023-06-05T03:16:59;96924.00;;;17.68;82.86
20930;BME280;21895;47.072;15.132;2023-06-05T03:19:27;96928.00;;;17.74;82.68
20930;BME280;21895;47.072;15.132;2023-06-05T03:21:54;96924.00;;;17.68;82.88
20930;BME280;21895;47.072;15.132;2023-06-05T03:24:21;96918.00;;;17.80;81.90
20930;BME280;21895;47.072;15.132;2023-06-05T03:26:50;96913.00;;;17.77;81.98
20930;BME280;21895;47.072;15.132;2023-06-05T03:29:17;96922.00;;;17.82;81.59
20930;BME280;21895;47.072;15.132;2023-06-05T03:31:43;96924.00;;;17.78;81.70
20930;BME280;21895;47.072;15.132;2023-06-05T03:34:10;96918.00;;;17.73;81.52
20930;BME280;21895;47.072;15.132;2023-06-05T03:36:37;96919.00;;;17.74;81.41
20930;BME280;21895;47.072;15.132;2023-06-05T03:39:06;96920.00;;;17.76;81.99
20930;BME280;21895;47.072;15.132;2023-06-05T03:41:33;96926.00;;;17.73;82.40
20930;BME280;21895;47.072;15.132;2023-06-05T03:43:59;96920.00;;;17.69;82.27
20930;BME280;21895;47.072;15.132;2023-06-05T03:46:26;96923.00;;;17.73;82.24
20930;BME280;21895;47.072;15.132;2023-06-05T03:48:55;96931.00;;;17.81;81.61
20930;BME280;21895;47.072;15.132;2023-06-05T03:51:26;96928.00;;;17.74;81.64
20930;BME280;21895;47.072;15.132;2023-06-05T03:53:58;96930.00;;;17.75;81.73
20930;BME280;21895;47.072;15.132;2023-06-05T03:56:26;96918.00;;;17.76;81.98
20930;BME280;21895;47.072;15.132;2023-06-05T03:59:01;96926.00;;;17.73;81.99
20930;BME280;21895;47.072;15.132;2023-06-05T04:01:36;96926.00;;;17.78;81.50
20930;BME280;21895;47.072;15.132;2023-06-05T04:04:05;96924.00;;;17.68;82.38
20930;BME280;21895;47.072;15.132;2023-06-05T04:06:32;96923.00;;;17.69;82.40
20930;BME280;21895;47.072;15.132;2023-06-05T04:08:59;96925.00;;;17.67;82.68
20930;BME280;21895;47.072;15.132;2023-06-05T04:11:26;96925.00;;;17.67;83.00
20930;BME280;21895;47.072;15.132;2023-06-05T04:13:56;96936.00;;;17.77;82.63
20930;BME280;21895;47.072;15.132;2023-06-05T04:16:22;96940.00;;;17.78;81.89
20930;BME280;21895;47.072;15.132;2023-06-05T04:18:49;96946.00;;;17.77;81.92
20930;BME280;21895;47.072;15.132;2023-06-05T04:21:16;96940.00;;;17.87;81.56
20930;BME280;21895;47.072;15.132;2023-06-05T04:23:42;96947.00;;;17.94;80.54
20930;BME280;21895;47.072;15.132;2023-06-05T04:26:09;96943.00;;;17.92;80.38
20930;BME280;21895;47.072;15.132;2023-06-05T04:28:35;96943.00;;;17.85;80.88
20930;BME280;21895;47.072;15.132;2023-06-05T04:31:02;96936.00;;;17.88;80.91
20930;BME280;21895;47.072;15.132;2023-06-05T04:33:29;96935.00;;;17.78;82.10
20930;BME280;21895;47.072;15.132;2023-06-05T04:35:55;96938.00;;;17.80;82.91
20930;BME280;21895;47.072;15.132;2023-06-05T04:38:24;96932.00;;;17.81;82.55
20930;BME280;21895;47.072;15.132;2023-06-05T04:40:51;96932.00;;;17.75;82.51
20930;BME280;21895;47.072;15.132;2023-06-05T04:43:17;96927.00;;;17.74;82.07
20930;BME280;21895;47.072;15.132;2023-06-05T04:45:44;96923.00;;;17.74;82.48
20930;BME280;21895;47.072;15.132;2023-06-05T04:48:12;96927.00;;;17.79;82.81
20930;BME280;21895;47.072;15.132;2023-06-05T04:50:38;96923.00;;;17.69;83.22
20930;BME280;21895;47.072;15.132;2023-06-05T04:53:05;96917.00;;;17.79;83.17
20930;BME280;21895;47.072;15.132;2023-06-05T04:55:32;96921.00;;;17.95;82.40
20930;BME280;21895;47.072;15.132;2023-06-05T04:57:59;96919.00;;;17.92;81.70
20930;BME280;21895;47.072;15.132;2023-06-05T05:00:27;96925.00;;;18.04;81.75
20930;BME280;21895;47.072;15.132;2023-06-05T05:02:54;96923.00;;;17.96;81.42
20930;BME280;21895;47.072;15.132;2023-06-05T05:05:20;96923.00;;;18.11;81.54
20930;BME280;21895;47.072;15.132;2023-06-05T05:07:47;96922.00;;;18.16;80.79
20930;BME280;21895;47.072;15.132;2023-06-05T05:10:14;96912.00;;;18.29;80.59
20930;BME280;21895;47.072;15.132;2023-06-05T05:12:40;96907.00;;;18.49;79.51
20930;BME280;21895;47.072;15.132;2023-06-05T05:15:08;96916.00;;;18.79;77.49
20930;BME280;21895;47.072;15.132;2023-06-05T05:17:34;96912.00;;;18.82;76.71
20930;BME280;21895;47.072;15.132;2023-06-05T05:20:02;96919.00;;;18.89;76.61
20930;BME280;21895;47.072;15.132;2023-06-05T05:22:30;96918.00;;;18.87;76.83
20930;BME280;21895;47.072;15.132;2023-06-05T05:24:56;96914.00;;;18.86;76.82
20930;BME280;21895;47.072;15.132;2023-06-05T05:27:23;96918.00;;;18.82;76.23
20930;BME280;21895;47.072;15.132;2023-06-05T05:29:50;96914.00;;;18.79;76.38
20930;BME280;21895;47.072;15.132;2023-06-05T05:32:17;96918.00;;;18.87;76.07
20930;BME280;21895;47.072;15.132;2023-06-05T05:34:43;96909.00;;;18.71;76.78
20930;BME280;21895;47.072;15.132;2023-06-05T05:37:10;96915.00;;;18.75;76.67
20930;BME280;21895;47.072;15.132;2023-06-05T05:39:37;96919.00;;;18.66;76.50
20930;BME280;21895;47.072;15.132;2023-06-05T05:42:04;96916.00;;;18.50;75.61
20930;BME280;21895;47.072;15.132;2023-06-05T05:44:30;96922.00;;;18.40;76.89
20930;BME280;21895;47.072;15.132;2023-06-05T05:46:57;96921.00;;;18.43;77.68
20930;BME280;21895;47.072;15.132;2023-06-05T05:49:23;96922.00;;;18.47;77.42
20930;BME280;21895;47.072;15.132;2023-06-05T05:51:51;96923.00;;;18.61;76.27
20930;BME280;21895;47.072;15.132;2023-06-05T05:54:17;96928.00;;;18.59;76.38
20930;BME280;21895;47.072;15.132;2023-06-05T05:56:44;96930.00;;;18.42;76.42
20930;BME280;21895;47.072;15.132;2023-06-05T05:59:11;96933.00;;;18.33;77.12
20930;BME280;21895;47.072;15.132;2023-06-05T06:01:37;96930.00;;;18.27;77.39
20930;BME280;21895;47.072;15.132;2023-06-05T06:04:05;96934.00;;;18.27;76.60
20930;BME280;21895;47.072;15.132;2023-06-05T06:06:32;96931.00;;;18.32;77.54
20930;BME280;21895;47.072;15.132;2023-06-05T06:08:59;96931.00;;;18.29;78.00
20930;BME280;21895;47.072;15.132;2023-06-05T06:11:27;96940.00;;;18.41;77.13
20930;BME280;21895;47.072;15.132;2023-06-05T06:13:53;96941.00;;;18.45;77.65
20930;BME280;21895;47.072;15.132;2023-06-05T06:16:20;96947.00;;;18.39;79.08
20930;BME280;21895;47.072;15.132;2023-06-05T06:18:47;96942.00;;;18.32;79.23
20930;BME280;21895;47.072;15.132;2023-06-05T06:21:13;96944.00;;;18.28;78.42
20930;BME280;21895;47.072;15.132;2023-06-05T06:23:40;96944.00;;;18.33;78.18
20930;BME280;21895;47.072;15.132;2023-06-05T06:26:06;96939.00;;;18.35;78.20
20930;BME280;21895;47.072;15.132;2023-06-05T06:28:33;96941.00;;;18.33;78.50
20930;BME280;21895;47.072;15.132;2023-06-05T06:31:00;96938.00;;;18.43;79.31
20930;BME280;21895;47.072;15.132;2023-06-05T06:33:26;96931.00;;;18.47;79.57
20930;BME280;21895;47.072;15.132;2023-06-05T06:35:53;96935.00;;;18.60;77.09
20930;BME280;21895;47.072;15.132;2023-06-05T06:38:19;96934.00;;;18.55;77.25
20930;BME280;21895;47.072;15.132;2023-06-05T06:40:46;96932.00;;;18.57;77.56
20930;BME280;21895;47.072;15.132;2023-06-05T06:43:13;96930.00;;;18.74;76.96
20930;BME280;21895;47.072;15.132;2023-06-05T06:45:40;96928.00;;;18.76;76.69
20930;BME280;21895;47.072;15.132;2023-06-05T06:48:07;96922.00;;;18.89;76.17
20930;BME280;21895;47.072;15.132;2023-06-05T06:50:35;96928.00;;;18.97;76.10
20930;BME280;21895;47.072;15.132;2023-06-05T06:53:02;96926.00;;;19.02;76.83
20930;BME280;21895;47.072;15.132;2023-06-05T06:55:28;96921.00;;;19.02;76.30
20930;BME280;21895;47.072;15.132;2023-06-05T06:57:55;96935.00;;;19.10;76.57
20930;BME280;21895;47.072;15.132;2023-06-05T07:00:21;96925.00;;;19.22;74.99
20930;BME280;21895;47.072;15.132;2023-06-05T07:02:49;96929.00;;;19.06;75.53
20930;BME280;21895;47.072;15.132;2023-06-05T07:05:16;96924.00;;;18.98;74.64
20930;BME280;21895;47.072;15.132;2023-06-05T07:07:43;96925.00;;;19.24;74.57
20930;BME280;21895;47.072;15.132;2023-06-05T07:10:10;96928.00;;;19.02;75.31
20930;BME280;21895;47.072;15.132;2023-06-05T07:12:37;96936.00;;;19.07;74.35
20930;BME280;21895;47.072;15.132;2023-06-05T07:15:04;96932.00;;;18.98;73.19
20930;BME280;21895;47.072;15.132;2023-06-05T07:17:31;96940.00;;;18.93;73.72
20930;BME280;21895;47.072;15.132;2023-06-05T07:19:58;96934.00;;;18.79;74.93
20930;BME280;21895;47.072;15.132;2023-06-05T07:22:26;96934.00;;;18.64;75.34
20930;BME280;21895;47.072;15.132;2023-06-05T07:24:54;96936.00;;;18.68;76.39
20930;BME280;21895;47.072;15.132;2023-06-05T07:27:21;96934.00;;;18.66;75.94
20930;BME280;21895;47.072;15.132;2023-06-05T07:29:47;96930.00;;;18.69;76.04
20930;BME280;21895;47.072;15.132;2023-06-05T07:32:18;96940.00;;;18.70;75.59
20930;BME280;21895;47.072;15.132;2023-06-05T07:34:44;96942.00;;;18.59;76.38
20930;BME280;21895;47.072;15.132;2023-06-05T07:37:11;96945.00;;;18.46;76.98
20930;BME280;21895;47.072;15.132;2023-06-05T07:39:37;96935.00;;;18.48;78.31
20930;BME280;21895;47.072;15.132;2023-06-05T07:42:04;96938.00;;;18.64;77.39
20930;BME280;21895;47.072;15.132;2023-06-05T07:44:32;96939.00;;;18.68;77.44
20930;BME280;21895;47.072;15.132;2023-06-05T07:46:58;96944.00;;;18.69;78.66
20930;BME280;21895;47.072;15.132;2023-06-05T07:49:25;96941.00;;;18.76;77.72
20930;BME280;21895;47.072;15.132;2023-06-05T07:51:51;96946.00;;;18.72;78.72
20930;BME280;21895;47.072;15.132;2023-06-05T07:54:18;96940.00;;;18.75;78.34
20930;BME280;21895;47.072;15.132;2023-06-05T07:56:46;96944.00;;;18.76;78.32
20930;BME280;21895;47.072;15.132;2023-06-05T07:59:17;96942.00;;;18.76;78.60
20930;BME280;21895;47.072;15.132;2023-06-05T08:01:50;96945.00;;;18.68;79.02
20930;BME280;21895;47.072;15.132;2023-06-05T08:04:17;96948.00;;;18.67;79.44
20930;BME280;21895;47.072;15.132;2023-06-05T08:06:46;96945.00;;;18.64;78.62
20930;BME280;21895;47.072;15.132;2023-06-05T08:09:12;96947.00;;;18.64;78.76
20930;BME280;21895;47.072;15.132;2023-06-05T08:11:39;96950.00;;;18.56;79.62
20930;BME280;21895;47.072;15.132;2023-06-05T08:14:08;96950.00;;;18.56;80.03
20930;BME280;21895;47.072;15.132;2023-06-05T08:16:35;96958.00;;;18.53;79.75
20930;BME280;21895;47.072;15.132;2023-06-05T08:19:02;96959.00;;;18.49;79.47
20930;BME280;21895;47.072;15.132;2023-06-05T08:21:29;96967.00;;;18.61;79.42
20930;BME280;21895;47.072;15.132;2023-06-05T08:23:56;96965.00;;;18.57;80.48
20930;BME280;21895;47.072;15.132;2023-06-05T08:26:22;96956.00;;;18.51;81.15
20930;BME280;21895;47.072;15.132;2023-06-05T08:28:49;96962.00;;;18.42;81.92
20930;BME280;21895;47.072;15.132;2023-06-05T08:31:16;96958.00;;;18.25;81.83
20930;BME280;21895;47.072;15.132;2023-06-05T08:33:43;96953.00;;;18.26;82.00
20930;BME280;21895;47.072;15.132;2023-06-05T08:36:10;96945.00;;;18.48;81.00
20930;BME280;21895;47.072;15.132;2023-06-05T08:38:36;96951.00;;;18.55;80.28
20930;BME280;21895;47.072;15.132;2023-06-05T08:41:07;96946.00;;;18.66;80.12
20930;BME280;21895;47.072;15.132;2023-06-05T08:43:40;96941.00;;;18.57;80.03
20930;BME280;21895;47.072;15.132;2023-06-05T08:46:14;96938.00;;;18.59;79.77
20930;BME280;21895;47.072;15.132;2023-06-05T08:48:48;96937.00;;;18.46;80.92
20930;BME280;21895;47.072;15.132;2023-06-05T08:51:19;96945.00;;;18.29;82.08
20930;BME280;21895;47.072;15.132;2023-06-05T08:54:02;96949.00;;;18.33;82.76
20930;BME280;21895;47.072;15.132;2023-06-05T08:56:31;96952.00;;;18.44;81.60
20930;BME280;21895;47.072;15.132;2023-06-05T08:58:58;96945.00;;;18.58;80.84
20930;BME280;21895;47.072;15.132;2023-06-05T09:01:25;96958.00;;;18.42;82.11
20930;BME280;21895;47.072;15.132;2023-06-05T09:03:52;96958.00;;;18.51;81.12
20930;BME280;21895;47.072;15.132;2023-06-05T09:06:19;96953.00;;;18.51;81.80
20930;BME280;21895;47.072;15.132;2023-06-05T09:08:46;96955.00;;;18.54;81.59
20930;BME280;21895;47.072;15.132;2023-06-05T09:11:47;96953.00;;;18.68;81.04
20930;BME280;21895;47.072;15.132;2023-06-05T09:14:13;96963.00;;;18.83;80.69
20930;BME280;21895;47.072;15.132;2023-06-05T09:16:43;96960.00;;;18.92;80.00
20930;BME280;21895;47.072;15.132;2023-06-05T09:19:11;96960.00;;;19.19;79.09
20930;BME280;21895;47.072;15.132;2023-06-05T09:21:38;96955.00;;;19.25;78.11
20930;BME280;21895;47.072;15.132;2023-06-05T09:24:23;96958.00;;;19.41;77.42
20930;BME280;21895;47.072;15.132;2023-06-05T09:27:03;96961.00;;;19.45;76.19
20930;BME280;21895;47.072;15.132;2023-06-05T09:29:40;96955.00;;;19.53;75.73
20930;BME280;21895;47.072;15.132;2023-06-05T09:32:19;96954.00;;;19.52;76.86
20930;BME280;21895;47.072;15.132;2023-06-05T09:34:55;96960.00;;;19.56;75.73
20930;BME280;21895;47.072;15.132;2023-06-05T09:37:37;96960.00;;;19.46;76.16
20930;BME280;21895;47.072;15.132;2023-06-05T09:40:04;96960.00;;;19.39;76.21
20930;BME280;21895;47.072;15.132;2023-06-05T09:42:35;96953.00;;;19.36;76.35
20930;BME280;21895;47.072;15.132;2023-06-05T09:45:02;96962.00;;;19.23;77.21
20930;BME280;21895;47.072;15.132;2023-06-05T09:47:30;96954.00;;;19.22;77.84
20930;BME280;21895;47.072;15.132;2023-06-05T09:50:22;96957.00;;;19.25;78.19
20930;BME280;21895;47.072;15.132;2023-06-05T09:52:52;96952.00;;;19.17;77.33
20930;BME280;21895;47.072;15.132;2023-06-05T09:55:23;96951.00;;;19.16;77.01
20930;BME280;21895;47.072;15.132;2023-06-05T09:57:52;96950.00;;;19.15;76.96
20930;BME280;21895;47.072;15.132;2023-06-05T10:00:19;96948.00;;;19.28;77.28
20930;BME280;21895;47.072;15.132;2023-06-05T10:02:48;96946.00;;;19.30;78.14
20930;BME280;21895;47.072;15.132;2023-06-05T10:05:16;96943.00;;;19.35;77.84
20930;BME280;21895;47.072;15.132;2023-06-05T10:07:43;96945.00;;;19.47;76.90
20930;BME280;21895;47.072;15.132;2023-06-05T10:10:10;96947.00;;;19.31;76.47
20930;BME280;21895;47.072;15.132;2023-06-05T10:12:38;96962.00;;;19.28;77.07
20930;BME280;21895;47.072;15.132;2023-06-05T10:15:07;96955.00;;;19.13;76.54
20930;BME280;21895;47.072;15.132;2023-06-05T10:17:36;96954.00;;;18.93;78.19
20930;BME280;21895;47.072;15.132;2023-06-05T10:20:06;96954.00;;;18.89;78.29
20930;BME280;21895;47.072;15.132;2023-06-05T10:22:36;96952.00;;;18.80;78.84
20930;BME280;21895;47.072;15.132;2023-06-05T10:25:07;96953.00;;;18.73;79.83
20930;BME280;21895;47.072;15.132;2023-06-05T10:28:29;96949.00;;;18.84;80.13
20930;BME280;21895;47.072;15.132;2023-06-05T10:31:19;96950.00;;;18.70;80.56
20930;BME280;21895;47.072;15.132;2023-06-05T10:34:35;96944.00;;;18.61;80.99
20930;BME280;21895;47.072;15.132;2023-06-05T10:38:46;96951.00;;;18.50;80.16
20930;BME280;21895;47.072;15.132;2023-06-05T10:41:13;96945.00;;;18.39;82.03
20930;BME280;21895;47.072;15.132;2023-06-05T10:43:48;96949.00;;;18.36;82.33
20930;BME280;21895;47.072;15.132;2023-06-05T10:46:37;96950.00;;;18.37;82.69
20930;BME280;21895;47.072;15.132;2023-06-05T10:49:15;96948.00;;;18.43;82.72
20930;BME280;21895;47.072;15.132;2023-06-05T10:51:51;96954.00;;;18.55;82.59
20930;BME280;21895;47.072;15.132;2023-06-05T10:55:42;96949.00;;;18.60;82.19
20930;BME280;21895;47.072;15.132;2023-06-05T10:58:11;96948.00;;;18.82;80.43
20930;BME280;21895;47.072;15.132;2023-06-05T11:01:20;96938.00;;;18.71;80.91
20930;BME280;21895;47.072;15.132;2023-06-05T11:03:59;96947.00;;;18.64;81.42
20930;BME280;21895;47.072;15.132;2023-06-05T11:06:27;96950.00;;;18.64;82.12
20930;BME280;21895;47.072;15.132;2023-06-05T11:09:14;96950.00;;;18.64;81.97
20930;BME280;21895;47.072;15.132;2023-06-05T11:12:01;96953.00;;;18.59;81.74
20930;BME280;21895;47.072;15.132;2023-06-05T11:14:49;96964.00;;;18.49;81.57
20930;BME280;21895;47.072;15.132;2023-06-05T11:17:38;96959.00;;;18.48;82.91
20930;BME280;21895;47.072;15.132;2023-06-05T11:20:08;96951.00;;;18.48;82.68
20930;BME280;21895;47.072;15.132;2023-06-05T11:23:14;96949.00;;;18.44;83.31
20930;BME280;21895;47.072;15.132;2023-06-05T11:25:41;96952.00;;;18.44;83.50
20930;BME280;21895;47.072;15.132;2023-06-05T11:28:08;96953.00;;;18.35;83.99
20930;BME280;21895;47.072;15.132;2023-06-05T11:30:41;96947.00;;;18.30;83.55
20930;BME280;21895;47.072;15.132;2023-06-05T11:33:19;96958.00;;;18.30;83.58
20930;BME280;21895;47.072;15.132;2023-06-05T11:35:49;96959.00;;;18.33;83.79
20930;BME280;21895;47.072;15.132;2023-06-05T11:38:21;96959.00;;;18.34;83.51
20930;BME280;21895;47.072;15.132;2023-06-05T11:40:51;96959.00;;;18.43;83.30
20930;BME280;21895;47.072;15.132;2023-06-05T11:43:18;96956.00;;;18.55;81.64
20930;BME280;21895;47.072;15.132;2023-06-05T11:45:57;96957.00;;;18.57;82.42
20930;BME280;21895;47.072;15.132;2023-06-05T11:48:25;96955.00;;;18.73;80.73
20930;BME280;21895;47.072;15.132;2023-06-05T11:51:03;96952.00;;;18.81;80.75
20930;BME280;21895;47.072;15.132;2023-06-05T11:53:32;96950.00;;;18.82;81.45
20930;BME280;21895;47.072;15.132;2023-06-05T11:55:59;96950.00;;;18.80;80.13
20930;BME280;21895;47.072;15.132;2023-06-05T11:58:39;96949.00;;;18.98;80.39
20930;BME280;21895;47.072;15.132;2023-06-05T12:01:18;96946.00;;;18.93;80.93
20930;BME280;21895;47.072;15.132;2023-06-05T12:04:05;96947.00;;;18.83;80.27
20930;BME280;21895;47.072;15.132;2023-06-05T12:06:32;96949.00;;;18.76;80.24
20930;BME280;21895;47.072;15.132;2023-06-05T12:09:11;96945.00;;;18.60;81.40
20930;BME280;21895;47.072;15.132;2023-06-05T12:11:38;96947.00;;;18.56;80.05
20930;BME280;21895;47.072;15.132;2023-06-05T12:14:05;96944.00;;;18.37;79.41
20930;BME280;21895;47.072;15.132;2023-06-05T12:16:40;96946.00;;;18.42;79.78
20930;BME280;21895;47.072;15.132;2023-06-05T12:19:18;96934.00;;;18.53;78.70
20930;BME280;21895;47.072;15.132;2023-06-05T12:21:47;96947.00;;;18.44;79.11
20930;BME280;21895;47.072;15.132;2023-06-05T12:24:14;96939.00;;;18.51;78.15
20930;BME280;21895;47.072;15.132;2023-06-05T12:27:02;96940.00;;;18.31;79.59
20930;BME280;21895;47.072;15.132;2023-06-05T12:29:38;96943.00;;;18.36;80.16
20930;BME280;21895;47.072;15.132;2023-06-05T12:32:22;96936.00;;;18.42;79.80
20930;BME280;21895;47.072;15.132;2023-06-05T12:34:50;96939.00;;;18.49;77.09
20930;BME280;21895;47.072;15.132;2023-06-05T12:37:34;96921.00;;;18.52;78.07
20930;BME280;21895;47.072;15.132;2023-06-05T12:40:05;96917.00;;;18.66;77.42
20930;BME280;21895;47.072;15.132;2023-06-05T12:42:38;96922.00;;;18.71;76.72
20930;BME280;21895;47.072;15.132;2023-06-05T12:45:08;96923.00;;;18.87;76.38
20930;BME280;21895;47.072;15.132;2023-06-05T12:47:38;96924.00;;;18.86;76.87
20930;BME280;21895;47.072;15.132;2023-06-05T12:50:07;96924.00;;;18.96;76.49
20930;BME280;21895;47.072;15.132;2023-06-05T12:52:35;96923.00;;;19.07;75.83
20930;BME280;21895;47.072;15.132;2023-06-05T12:55:02;96922.00;;;19.08;76.38
20930;BME280;21895;47.072;15.132;2023-06-05T12:57:29;96920.00;;;19.27;77.03
20930;BME280;21895;47.072;15.132;2023-06-05T12:59:55;96919.00;;;19.46;76.43
20930;BME280;21895;47.072;15.132;2023-06-05T13:02:23;96917.00;;;19.61;75.18
20930;BME280;21895;47.072;15.132;2023-06-05T13:04:51;96924.00;;;19.81;73.78
20930;BME280;21895;47.072;15.132;2023-06-05T13:07:17;96913.00;;;19.76;72.67